Baltimore, Maryland
Current Conditions -  °F | °C
As of 12:54 PM on Thursday 23 Oct 2014 (Local Time) from KBWI Reporting Station
Broken Clouds Broken Clouds  
Wind Chill: 59°   Ceiling: 7500
Heat Index: 59°   Visibility: 10mi
Dew Point: 44°   Wind: 15mph
Humidity: 58%   Direction: 340°NNW
Pressure: 29.85"   Gusts: 30mph
Location:  39.29°N, 76.61°W
Report Text: KBWI 231654Z 34013G26KT 10SM SCT035 BKN075 15/07 A2985 RMK AO2 PK WND 33028/1629 SLP106 T01500067
Loading
Personal Weather Stations






























Interactive Weather Map
Tropical Storm Tracking
New forecast layout! Learn more

10-Day Weather Forecast

Advertisements
Track Severe Weather on mobile